sensor_id;sensor_type;location;lat;lon;timestamp;P1;durP1;ratioP1;P2;durP2;ratioP2
17618;SDS011;8928;51.678;6.074;2023-03-14T00:02:28;10.93;;;1.73;;
17618;SDS011;8928;51.678;6.074;2023-03-14T00:05:15;10.10;;;2.10;;
17618;SDS011;8928;51.678;6.074;2023-03-14T00:08:02;10.80;;;1.97;;
17618;SDS011;8928;51.678;6.074;2023-03-14T00:10:49;7.07;;;2.10;;
17618;SDS011;8928;51.678;6.074;2023-03-14T00:13:36;10.03;;;2.00;;
17618;SDS011;8928;51.678;6.074;2023-03-14T00:16:24;8.77;;;2.00;;
17618;SDS011;8928;51.678;6.074;2023-03-14T00:19:12;7.70;;;1.70;;
17618;SDS011;8928;51.678;6.074;2023-03-14T00:21:59;13.50;;;2.20;;
17618;SDS011;8928;51.678;6.074;2023-03-14T00:24:46;7.33;;;1.67;;
17618;SDS011;8928;51.678;6.074;2023-03-14T00:27:34;8.70;;;1.63;;
17618;SDS011;8928;51.678;6.074;2023-03-14T00:30:21;10.73;;;1.83;;
17618;SDS011;8928;51.678;6.074;2023-03-14T00:33:08;10.57;;;1.93;;
17618;SDS011;8928;51.678;6.074;2023-03-14T00:35:58;9.43;;;1.60;;
17618;SDS011;8928;51.678;6.074;2023-03-14T00:38:47;8.23;;;1.57;;
17618;SDS011;8928;51.678;6.074;2023-03-14T00:41:35;6.97;;;1.70;;
17618;SDS011;8928;51.678;6.074;2023-03-14T00:44:22;7.77;;;1.77;;
17618;SDS011;8928;51.678;6.074;2023-03-14T00:47:10;5.73;;;1.50;;
17618;SDS011;8928;51.678;6.074;2023-03-14T00:49:57;6.53;;;1.37;;
17618;SDS011;8928;51.678;6.074;2023-03-14T00:52:45;8.87;;;1.60;;
17618;SDS011;8928;51.678;6.074;2023-03-14T00:55:35;9.73;;;2.17;;
17618;SDS011;8928;51.678;6.074;2023-03-14T00:58:23;7.60;;;1.63;;
17618;SDS011;8928;51.678;6.074;2023-03-14T01:01:12;8.40;;;1.53;;
17618;SDS011;8928;51.678;6.074;2023-03-14T01:04:01;7.67;;;1.27;;
17618;SDS011;8928;51.678;6.074;2023-03-14T01:06:48;7.40;;;1.27;;
17618;SDS011;8928;51.678;6.074;2023-03-14T01:09:36;7.63;;;1.40;;
17618;SDS011;8928;51.678;6.074;2023-03-14T01:12:23;6.97;;;1.50;;
17618;SDS011;8928;51.678;6.074;2023-03-14T01:15:11;8.17;;;1.27;;
17618;SDS011;8928;51.678;6.074;2023-03-14T01:17:58;6.10;;;1.30;;
17618;SDS011;8928;51.678;6.074;2023-03-14T01:20:45;9.53;;;1.60;;
17618;SDS011;8928;51.678;6.074;2023-03-14T01:23:31;10.40;;;1.53;;
17618;SDS011;8928;51.678;6.074;2023-03-14T01:26:20;7.43;;;1.20;;
17618;SDS011;8928;51.678;6.074;2023-03-14T01:29:09;5.40;;;1.20;;
17618;SDS011;8928;51.678;6.074;2023-03-14T01:31:56;9.83;;;1.20;;
17618;SDS011;8928;51.678;6.074;2023-03-14T01:34:43;8.70;;;1.43;;
17618;SDS011;8928;51.678;6.074;2023-03-14T01:37:30;7.83;;;1.20;;
17618;SDS011;8928;51.678;6.074;2023-03-14T01:40:17;6.87;;;1.20;;
17618;SDS011;8928;51.678;6.074;2023-03-14T01:43:12;9.77;;;1.17;;
17618;SDS011;8928;51.678;6.074;2023-03-14T01:49:07;9.30;;;1.40;;
17618;SDS011;8928;51.678;6.074;2023-03-14T01:52:04;7.70;;;1.10;;
17618;SDS011;8928;51.678;6.074;2023-03-14T01:54:55;8.23;;;1.20;;
17618;SDS011;8928;51.678;6.074;2023-03-14T01:57:47;9.00;;;1.20;;
17618;SDS011;8928;51.678;6.074;2023-03-14T02:00:39;7.37;;;1.30;;
17618;SDS011;8928;51.678;6.074;2023-03-14T02:03:26;7.63;;;1.07;;
17618;SDS011;8928;51.678;6.074;2023-03-14T02:06:14;7.57;;;0.90;;
17618;SDS011;8928;51.678;6.074;2023-03-14T02:09:05;8.77;;;1.00;;
17618;SDS011;8928;51.678;6.074;2023-03-14T02:11:52;5.63;;;0.90;;
17618;SDS011;8928;51.678;6.074;2023-03-14T02:14:39;7.97;;;1.13;;
17618;SDS011;8928;51.678;6.074;2023-03-14T02:17:29;5.03;;;0.93;;
17618;SDS011;8928;51.678;6.074;2023-03-14T02:20:24;5.57;;;0.93;;
17618;SDS011;8928;51.678;6.074;2023-03-14T02:23:19;4.50;;;1.10;;
17618;SDS011;8928;51.678;6.074;2023-03-14T02:26:14;7.63;;;1.00;;
17618;SDS011;8928;51.678;6.074;2023-03-14T02:29:07;10.50;;;1.10;;
17618;SDS011;8928;51.678;6.074;2023-03-14T02:31:54;4.50;;;0.83;;
17618;SDS011;8928;51.678;6.074;2023-03-14T02:34:41;6.17;;;1.00;;
17618;SDS011;8928;51.678;6.074;2023-03-14T02:37:32;4.63;;;1.10;;
17618;SDS011;8928;51.678;6.074;2023-03-14T02:40:23;8.93;;;1.20;;
17618;SDS011;8928;51.678;6.074;2023-03-14T02:43:10;8.63;;;1.17;;
17618;SDS011;8928;51.678;6.074;2023-03-14T02:45:58;7.63;;;1.37;;
17618;SDS011;8928;51.678;6.074;2023-03-14T02:48:48;10.27;;;1.30;;
17618;SDS011;8928;51.678;6.074;2023-03-14T02:51:38;6.67;;;1.30;;
17618;SDS011;8928;51.678;6.074;2023-03-14T02:54:28;8.37;;;1.10;;
17618;SDS011;8928;51.678;6.074;2023-03-14T02:57:15;7.50;;;1.30;;
17618;SDS011;8928;51.678;6.074;2023-03-14T03:00:02;7.97;;;1.50;;
17618;SDS011;8928;51.678;6.074;2023-03-14T03:02:51;10.43;;;1.40;;
17618;SDS011;8928;51.678;6.074;2023-03-14T03:05:39;10.80;;;1.50;;
17618;SDS011;8928;51.678;6.074;2023-03-14T03:08:27;6.93;;;1.30;;
17618;SDS011;8928;51.678;6.074;2023-03-14T03:11:15;9.40;;;1.40;;
17618;SDS011;8928;51.678;6.074;2023-03-14T03:14:02;9.20;;;1.60;;
17618;SDS011;8928;51.678;6.074;2023-03-14T03:16:49;9.73;;;1.20;;
17618;SDS011;8928;51.678;6.074;2023-03-14T03:19:37;12.17;;;1.70;;
17618;SDS011;8928;51.678;6.074;2023-03-14T03:22:24;7.77;;;1.60;;
17618;SDS011;8928;51.678;6.074;2023-03-14T03:25:11;10.00;;;1.73;;
17618;SDS011;8928;51.678;6.074;2023-03-14T03:27:58;11.47;;;1.43;;
17618;SDS011;8928;51.678;6.074;2023-03-14T03:30:46;9.23;;;1.30;;
17618;SDS011;8928;51.678;6.074;2023-03-14T03:33:33;9.33;;;1.37;;
17618;SDS011;8928;51.678;6.074;2023-03-14T03:36:22;10.33;;;1.70;;
17618;SDS011;8928;51.678;6.074;2023-03-14T03:39:09;5.80;;;1.40;;
17618;SDS011;8928;51.678;6.074;2023-03-14T03:41:56;11.70;;;2.03;;
17618;SDS011;8928;51.678;6.074;2023-03-14T03:44:43;10.37;;;1.70;;
17618;SDS011;8928;51.678;6.074;2023-03-14T03:47:31;12.27;;;1.83;;
17618;SDS011;8928;51.678;6.074;2023-03-14T03:50:18;11.57;;;1.50;;
17618;SDS011;8928;51.678;6.074;2023-03-14T03:53:06;9.87;;;1.60;;
17618;SDS011;8928;51.678;6.074;2023-03-14T03:55:53;11.63;;;1.70;;
17618;SDS011;8928;51.678;6.074;2023-03-14T03:58:40;10.27;;;1.60;;
17618;SDS011;8928;51.678;6.074;2023-03-14T04:01:27;14.03;;;2.03;;
17618;SDS011;8928;51.678;6.074;2023-03-14T04:04:14;12.30;;;1.50;;
17618;SDS011;8928;51.678;6.074;2023-03-14T04:07:01;11.90;;;1.70;;
17618;SDS011;8928;51.678;6.074;2023-03-14T04:09:50;13.70;;;1.53;;
17618;SDS011;8928;51.678;6.074;2023-03-14T04:12:37;9.57;;;1.53;;
17618;SDS011;8928;51.678;6.074;2023-03-14T04:15:24;7.67;;;1.60;;
17618;SDS011;8928;51.678;6.074;2023-03-14T04:18:11;9.73;;;1.60;;
17618;SDS011;8928;51.678;6.074;2023-03-14T04:20:58;13.70;;;1.80;;
17618;SDS011;8928;51.678;6.074;2023-03-14T04:23:45;10.50;;;1.70;;
17618;SDS011;8928;51.678;6.074;2023-03-14T04:26:33;9.93;;;1.37;;
17618;SDS011;8928;51.678;6.074;2023-03-14T04:29:20;9.40;;;1.20;;
17618;SDS011;8928;51.678;6.074;2023-03-14T04:32:08;9.83;;;1.30;;
17618;SDS011;8928;51.678;6.074;2023-03-14T04:34:55;7.63;;;1.37;;
17618;SDS011;8928;51.678;6.074;2023-03-14T04:37:41;11.97;;;1.33;;
17618;SDS011;8928;51.678;6.074;2023-03-14T04:40:29;7.60;;;1.20;;
17618;SDS011;8928;51.678;6.074;2023-03-14T04:43:18;10.53;;;1.73;;
17618;SDS011;8928;51.678;6.074;2023-03-14T04:46:05;9.93;;;1.30;;
17618;SDS011;8928;51.678;6.074;2023-03-14T04:48:53;7.63;;;1.40;;
17618;SDS011;8928;51.678;6.074;2023-03-14T04:51:41;6.20;;;1.30;;
17618;SDS011;8928;51.678;6.074;2023-03-14T04:54:28;9.47;;;1.33;;
17618;SDS011;8928;51.678;6.074;2023-03-14T04:57:15;8.20;;;1.50;;
17618;SDS011;8928;51.678;6.074;2023-03-14T05:00:04;7.23;;;1.10;;
17618;SDS011;8928;51.678;6.074;2023-03-14T05:02:52;5.63;;;1.03;;
17618;SDS011;8928;51.678;6.074;2023-03-14T05:05:39;8.07;;;1.10;;
17618;SDS011;8928;51.678;6.074;2023-03-14T05:08:26;6.37;;;0.93;;
17618;SDS011;8928;51.678;6.074;2023-03-14T05:11:13;6.63;;;0.90;;
17618;SDS011;8928;51.678;6.074;2023-03-14T05:14:00;4.90;;;0.80;;
17618;SDS011;8928;51.678;6.074;2023-03-14T05:16:48;6.27;;;0.87;;
17618;SDS011;8928;51.678;6.074;2023-03-14T05:19:35;5.20;;;0.80;;
17618;SDS011;8928;51.678;6.074;2023-03-14T05:22:22;4.77;;;0.80;;
17618;SDS011;8928;51.678;6.074;2023-03-14T05:25:09;4.53;;;1.00;;
17618;SDS011;8928;51.678;6.074;2023-03-14T05:27:56;4.53;;;0.93;;
17618;SDS011;8928;51.678;6.074;2023-03-14T05:30:43;2.83;;;0.90;;
17618;SDS011;8928;51.678;6.074;2023-03-14T05:33:32;5.17;;;0.90;;
17618;SDS011;8928;51.678;6.074;2023-03-14T05:36:19;4.03;;;0.90;;
17618;SDS011;8928;51.678;6.074;2023-03-14T05:39:06;5.00;;;0.90;;
17618;SDS011;8928;51.678;6.074;2023-03-14T05:41:53;2.43;;;0.90;;
17618;SDS011;8928;51.678;6.074;2023-03-14T05:44:41;5.00;;;1.27;;
17618;SDS011;8928;51.678;6.074;2023-03-14T05:47:28;5.40;;;1.10;;
17618;SDS011;8928;51.678;6.074;2023-03-14T05:50:16;6.10;;;1.40;;
17618;SDS011;8928;51.678;6.074;2023-03-14T05:53:03;5.80;;;1.30;;
17618;SDS011;8928;51.678;6.074;2023-03-14T05:55:51;6.47;;;1.60;;
17618;SDS011;8928;51.678;6.074;2023-03-14T05:58:38;5.10;;;1.40;;
17618;SDS011;8928;51.678;6.074;2023-03-14T06:01:25;6.70;;;1.80;;
17618;SDS011;8928;51.678;6.074;2023-03-14T06:04:12;7.50;;;1.60;;
17618;SDS011;8928;51.678;6.074;2023-03-14T06:07:01;10.67;;;2.10;;
17618;SDS011;8928;51.678;6.074;2023-03-14T06:09:48;6.13;;;2.10;;
17618;SDS011;8928;51.678;6.074;2023-03-14T06:12:35;5.90;;;2.23;;
17618;SDS011;8928;51.678;6.074;2023-03-14T06:15:22;7.27;;;1.90;;
17618;SDS011;8928;51.678;6.074;2023-03-14T06:18:09;7.60;;;2.50;;
17618;SDS011;8928;51.678;6.074;2023-03-14T06:20:56;7.17;;;2.27;;
17618;SDS011;8928;51.678;6.074;2023-03-14T06:23:44;8.50;;;2.10;;
17618;SDS011;8928;51.678;6.074;2023-03-14T06:26:31;8.73;;;2.40;;
17618;SDS011;8928;51.678;6.074;2023-03-14T06:29:18;8.63;;;2.50;;
17618;SDS011;8928;51.678;6.074;2023-03-14T06:32:05;9.53;;;2.70;;
17618;SDS011;8928;51.678;6.074;2023-03-14T06:34:52;7.67;;;2.60;;
17618;SDS011;8928;51.678;6.074;2023-03-14T06:37:39;8.33;;;2.97;;
17618;SDS011;8928;51.678;6.074;2023-03-14T06:40:28;6.70;;;2.70;;
17618;SDS011;8928;51.678;6.074;2023-03-14T06:43:15;9.43;;;3.30;;
17618;SDS011;8928;51.678;6.074;2023-03-14T06:46:02;8.83;;;2.90;;
17618;SDS011;8928;51.678;6.074;2023-03-14T06:48:49;9.33;;;3.20;;
17618;SDS011;8928;51.678;6.074;2023-03-14T06:51:36;9.27;;;3.13;;
17618;SDS011;8928;51.678;6.074;2023-03-14T06:54:23;8.07;;;3.30;;
17618;SDS011;8928;51.678;6.074;2023-03-14T06:57:11;8.93;;;2.90;;
17618;SDS011;8928;51.678;6.074;2023-03-14T06:59:58;7.23;;;3.03;;
17618;SDS011;8928;51.678;6.074;2023-03-14T07:02:45;10.83;;;3.40;;
17618;SDS011;8928;51.678;6.074;2023-03-14T07:05:32;7.37;;;2.90;;
17618;SDS011;8928;51.678;6.074;2023-03-14T07:08:19;8.63;;;3.00;;
17618;SDS011;8928;51.678;6.074;2023-03-14T07:11:06;7.53;;;3.50;;
17618;SDS011;8928;51.678;6.074;2023-03-14T07:13:56;10.37;;;3.50;;
17618;SDS011;8928;51.678;6.074;2023-03-14T07:16:43;10.40;;;3.97;;
17618;SDS011;8928;51.678;6.074;2023-03-14T07:19:30;12.00;;;3.80;;
17618;SDS011;8928;51.678;6.074;2023-03-14T07:22:17;8.03;;;3.80;;
17618;SDS011;8928;51.678;6.074;2023-03-14T07:25:04;11.03;;;3.93;;
17618;SDS011;8928;51.678;6.074;2023-03-14T07:27:52;9.17;;;3.70;;
17618;SDS011;8928;51.678;6.074;2023-03-14T07:30:40;7.30;;;3.83;;
17618;SDS011;8928;51.678;6.074;2023-03-14T07:33:27;8.80;;;3.73;;
17618;SDS011;8928;51.678;6.074;2023-03-14T07:36:15;7.77;;;4.00;;
17618;SDS011;8928;51.678;6.074;2023-03-14T07:39:03;10.40;;;4.33;;
17618;SDS011;8928;51.678;6.074;2023-03-14T07:41:50;10.03;;;4.33;;
17618;SDS011;8928;51.678;6.074;2023-03-14T07:44:37;9.00;;;4.10;;
17618;SDS011;8928;51.678;6.074;2023-03-14T07:47:25;9.23;;;4.17;;
17618;SDS011;8928;51.678;6.074;2023-03-14T07:50:12;7.47;;;3.80;;
17618;SDS011;8928;51.678;6.074;2023-03-14T07:52:59;7.90;;;3.97;;
17618;SDS011;8928;51.678;6.074;2023-03-14T07:55:46;8.77;;;4.03;;
17618;SDS011;8928;51.678;6.074;2023-03-14T07:58:34;8.30;;;3.97;;
17618;SDS011;8928;51.678;6.074;2023-03-14T08:01:21;7.47;;;3.80;;
17618;SDS011;8928;51.678;6.074;2023-03-14T08:04:09;9.33;;;2.17;;
17618;SDS011;8928;51.678;6.074;2023-03-14T08:06:56;5.13;;;1.30;;
17618;SDS011;8928;51.678;6.074;2023-03-14T08:09:43;2.43;;;1.00;;
17618;SDS011;8928;51.678;6.074;2023-03-14T08:12:30;2.37;;;1.03;;
17618;SDS011;8928;51.678;6.074;2023-03-14T08:15:17;2.37;;;0.70;;
17618;SDS011;8928;51.678;6.074;2023-03-14T08:18:05;2.63;;;0.60;;
17618;SDS011;8928;51.678;6.074;2023-03-14T08:20:53;2.10;;;0.50;;
17618;SDS011;8928;51.678;6.074;2023-03-14T08:23:40;4.97;;;0.57;;
17618;SDS011;8928;51.678;6.074;2023-03-14T08:26:27;2.20;;;0.50;;
17618;SDS011;8928;51.678;6.074;2023-03-14T08:29:14;3.07;;;0.60;;
17618;SDS011;8928;51.678;6.074;2023-03-14T08:32:01;1.67;;;0.63;;
17618;SDS011;8928;51.678;6.074;2023-03-14T08:34:49;1.33;;;0.40;;
17618;SDS011;8928;51.678;6.074;2023-03-14T08:37:37;1.67;;;0.50;;
17618;SDS011;8928;51.678;6.074;2023-03-14T08:40:25;1.97;;;0.60;;
17618;SDS011;8928;51.678;6.074;2023-03-14T08:43:12;4.00;;;0.77;;
17618;SDS011;8928;51.678;6.074;2023-03-14T08:45:59;2.67;;;0.93;;
17618;SDS011;8928;51.678;6.074;2023-03-14T08:48:47;2.73;;;1.33;;
17618;SDS011;8928;51.678;6.074;2023-03-14T08:51:34;4.57;;;1.80;;
17618;SDS011;8928;51.678;6.074;2023-03-14T08:54:22;6.70;;;2.13;;
17618;SDS011;8928;51.678;6.074;2023-03-14T08:57:09;4.77;;;2.23;;
17618;SDS011;8928;51.678;6.074;2023-03-14T08:59:56;5.40;;;2.70;;
17618;SDS011;8928;51.678;6.074;2023-03-14T09:02:44;6.53;;;2.70;;
17618;SDS011;8928;51.678;6.074;2023-03-14T09:05:32;5.63;;;2.70;;
17618;SDS011;8928;51.678;6.074;2023-03-14T09:08:19;6.00;;;2.87;;
17618;SDS011;8928;51.678;6.074;2023-03-14T09:11:08;7.83;;;2.70;;
17618;SDS011;8928;51.678;6.074;2023-03-14T09:13:55;8.77;;;3.20;;
17618;SDS011;8928;51.678;6.074;2023-03-14T09:16:42;5.07;;;1.93;;
17618;SDS011;8928;51.678;6.074;2023-03-14T09:19:29;4.13;;;1.10;;
17618;SDS011;8928;51.678;6.074;2023-03-14T09:22:16;3.90;;;1.07;;
17618;SDS011;8928;51.678;6.074;2023-03-14T09:25:04;1.60;;;0.70;;
17618;SDS011;8928;51.678;6.074;2023-03-14T09:27:53;2.07;;;0.80;;
17618;SDS011;8928;51.678;6.074;2023-03-14T09:30:40;3.33;;;1.33;;
17618;SDS011;8928;51.678;6.074;2023-03-14T09:33:27;5.00;;;1.30;;
17618;SDS011;8928;51.678;6.074;2023-03-14T09:36:14;5.17;;;0.90;;
17618;SDS011;8928;51.678;6.074;2023-03-14T09:39:01;5.00;;;0.80;;
17618;SDS011;8928;51.678;6.074;2023-03-14T09:41:50;7.07;;;1.00;;
17618;SDS011;8928;51.678;6.074;2023-03-14T09:44:42;4.07;;;0.80;;
17618;SDS011;8928;51.678;6.074;2023-03-14T09:47:37;6.80;;;0.90;;
17618;SDS011;8928;51.678;6.074;2023-03-14T09:50:26;5.40;;;0.90;;
17618;SDS011;8928;51.678;6.074;2023-03-14T09:53:20;4.97;;;1.00;;
17618;SDS011;8928;51.678;6.074;2023-03-14T09:56:11;3.53;;;0.63;;
17618;SDS011;8928;51.678;6.074;2023-03-14T09:59:02;5.60;;;0.90;;
17618;SDS011;8928;51.678;6.074;2023-03-14T10:01:53;4.07;;;0.93;;
17618;SDS011;8928;51.678;6.074;2023-03-14T10:04:43;4.67;;;0.73;;
17618;SDS011;8928;51.678;6.074;2023-03-14T10:07:32;4.13;;;0.90;;
17618;SDS011;8928;51.678;6.074;2023-03-14T10:10:20;3.83;;;0.70;;
17618;SDS011;8928;51.678;6.074;2023-03-14T10:13:10;5.37;;;0.80;;
17618;SDS011;8928;51.678;6.074;2023-03-14T10:16:02;3.03;;;0.40;;
17618;SDS011;8928;51.678;6.074;2023-03-14T10:18:52;2.43;;;0.50;;
17618;SDS011;8928;51.678;6.074;2023-03-14T10:21:40;3.87;;;0.60;;
17618;SDS011;8928;51.678;6.074;2023-03-14T10:24:29;4.53;;;0.60;;
17618;SDS011;8928;51.678;6.074;2023-03-14T10:27:18;5.17;;;0.60;;
17618;SDS011;8928;51.678;6.074;2023-03-14T10:30:07;3.93;;;0.40;;
17618;SDS011;8928;51.678;6.074;2023-03-14T10:33:19;3.37;;;0.73;;
17618;SDS011;8928;51.678;6.074;2023-03-14T10:36:16;3.30;;;0.40;;
17618;SDS011;8928;51.678;6.074;2023-03-14T10:39:21;3.97;;;0.57;;
17618;SDS011;8928;51.678;6.074;2023-03-14T10:42:13;4.07;;;0.60;;
17618;SDS011;8928;51.678;6.074;2023-03-14T10:45:06;3.07;;;0.50;;
17618;SDS011;8928;51.678;6.074;2023-03-14T10:48:18;9.47;;;0.80;;
17618;SDS011;8928;51.678;6.074;2023-03-14T10:51:07;6.97;;;0.77;;
17618;SDS011;8928;51.678;6.074;2023-03-14T10:53:58;6.23;;;0.83;;
17618;SDS011;8928;51.678;6.074;2023-03-14T10:56:50;6.40;;;0.80;;
17618;SDS011;8928;51.678;6.074;2023-03-14T10:59:43;5.27;;;0.97;;
17618;SDS011;8928;51.678;6.074;2023-03-14T11:02:33;4.80;;;0.70;;
17618;SDS011;8928;51.678;6.074;2023-03-14T11:05:29;8.83;;;1.13;;
17618;SDS011;8928;51.678;6.074;2023-03-14T11:08:23;10.90;;;1.20;;
17618;SDS011;8928;51.678;6.074;2023-03-14T11:11:15;8.17;;;1.17;;
17618;SDS011;8928;51.678;6.074;2023-03-14T11:14:08;7.33;;;1.10;;
17618;SDS011;8928;51.678;6.074;2023-03-14T11:17:05;13.77;;;1.33;;
17618;SDS011;8928;51.678;6.074;2023-03-14T11:20:04;13.50;;;1.30;;
17618;SDS011;8928;51.678;6.074;2023-03-14T11:23:07;18.77;;;1.63;;
17618;SDS011;8928;51.678;6.074;2023-03-14T11:26:00;11.23;;;1.67;;
17618;SDS011;8928;51.678;6.074;2023-03-14T11:28:57;16.50;;;1.90;;
17618;SDS011;8928;51.678;6.074;2023-03-14T11:31:48;19.30;;;1.97;;
17618;SDS011;8928;51.678;6.074;2023-03-14T11:34:36;18.27;;;1.67;;
17618;SDS011;8928;51.678;6.074;2023-03-14T11:37:32;11.70;;;1.53;;
17618;SDS011;8928;51.678;6.074;2023-03-14T11:40:21;16.20;;;2.07;;
17618;SDS011;8928;51.678;6.074;2023-03-14T11:43:11;22.43;;;3.43;;
17618;SDS011;8928;51.678;6.074;2023-03-14T11:46:05;19.87;;;3.43;;
17618;SDS011;8928;51.678;6.074;2023-03-14T11:48:58;14.87;;;3.10;;
17618;SDS011;8928;51.678;6.074;2023-03-14T11:51:50;22.57;;;4.83;;
17618;SDS011;8928;51.678;6.074;2023-03-14T11:54:41;15.97;;;2.27;;
17618;SDS011;8928;51.678;6.074;2023-03-14T11:57:34;21.60;;;2.90;;
17618;SDS011;8928;51.678;6.074;2023-03-14T12:00:22;22.40;;;3.37;;
17618;SDS011;8928;51.678;6.074;2023-03-14T12:03:14;17.00;;;1.90;;
17618;SDS011;8928;51.678;6.074;2023-03-14T12:06:09;21.73;;;2.30;;
17618;SDS011;8928;51.678;6.074;2023-03-14T12:09:03;20.00;;;2.10;;
17618;SDS011;8928;51.678;6.074;2023-03-14T12:11:51;23.97;;;2.40;;
17618;SDS011;8928;51.678;6.074;2023-03-14T12:14:44;19.70;;;2.10;;
17618;SDS011;8928;51.678;6.074;2023-03-14T12:17:38;18.13;;;2.13;;
17618;SDS011;8928;51.678;6.074;2023-03-14T12:20:29;14.87;;;1.90;;
17618;SDS011;8928;51.678;6.074;2023-03-14T12:23:16;19.27;;;2.17;;
17618;SDS011;8928;51.678;6.074;2023-03-14T12:26:07;20.27;;;2.50;;
17618;SDS011;8928;51.678;6.074;2023-03-14T12:29:11;21.17;;;2.27;;
17618;SDS011;8928;51.678;6.074;2023-03-14T12:32:09;25.63;;;2.43;;
17618;SDS011;8928;51.678;6.074;2023-03-14T12:38:23;26.07;;;2.50;;
17618;SDS011;8928;51.678;6.074;2023-03-14T12:41:17;18.50;;;2.40;;
17618;SDS011;8928;51.678;6.074;2023-03-14T12:50:43;20.67;;;2.30;;
17618;SDS011;8928;51.678;6.074;2023-03-14T12:53:42;24.17;;;2.33;;
17618;SDS011;8928;51.678;6.074;2023-03-14T12:56:44;21.20;;;2.20;;
17618;SDS011;8928;51.678;6.074;2023-03-14T12:59:38;22.93;;;2.00;;
17618;SDS011;8928;51.678;6.074;2023-03-14T13:02:36;20.70;;;1.90;;
17618;SDS011;8928;51.678;6.074;2023-03-14T13:05:26;16.43;;;2.00;;
17618;SDS011;8928;51.678;6.074;2023-03-14T13:08:14;18.13;;;1.90;;
17618;SDS011;8928;51.678;6.074;2023-03-14T13:11:19;14.97;;;1.73;;
17618;SDS011;8928;51.678;6.074;2023-03-14T13:14:07;10.23;;;1.70;;
17618;SDS011;8928;51.678;6.074;2023-03-14T13:16:58;17.77;;;1.80;;
17618;SDS011;8928;51.678;6.074;2023-03-14T13:19:48;16.50;;;2.40;;
17618;SDS011;8928;51.678;6.074;2023-03-14T13:22:37;12.93;;;1.77;;
17618;SDS011;8928;51.678;6.074;2023-03-14T13:25:26;11.73;;;1.50;;
17618;SDS011;8928;51.678;6.074;2023-03-14T13:28:16;7.43;;;1.47;;
17618;SDS011;8928;51.678;6.074;2023-03-14T13:31:03;12.53;;;1.50;;
17618;SDS011;8928;51.678;6.074;2023-03-14T13:33:58;10.80;;;1.10;;
17618;SDS011;8928;51.678;6.074;2023-03-14T13:36:46;16.07;;;1.70;;
17618;SDS011;8928;51.678;6.074;2023-03-14T13:39:34;11.07;;;1.60;;
17618;SDS011;8928;51.678;6.074;2023-03-14T13:42:28;9.63;;;1.33;;
17618;SDS011;8928;51.678;6.074;2023-03-14T13:45:16;10.87;;;1.27;;
17618;SDS011;8928;51.678;6.074;2023-03-14T13:48:03;9.67;;;1.40;;
17618;SDS011;8928;51.678;6.074;2023-03-14T13:50:54;9.47;;;1.40;;
17618;SDS011;8928;51.678;6.074;2023-03-14T13:53:45;10.67;;;1.50;;
17618;SDS011;8928;51.678;6.074;2023-03-14T13:56:34;17.07;;;1.70;;
17618;SDS011;8928;51.678;6.074;2023-03-14T13:59:23;11.90;;;1.80;;
17618;SDS011;8928;51.678;6.074;2023-03-14T14:02:11;9.70;;;1.40;;
17618;SDS011;8928;51.678;6.074;2023-03-14T14:05:00;11.67;;;1.50;;
17618;SDS011;8928;51.678;6.074;2023-03-14T14:07:48;10.97;;;1.33;;
17618;SDS011;8928;51.678;6.074;2023-03-14T14:10:36;12.03;;;1.60;;
17618;SDS011;8928;51.678;6.074;2023-03-14T14:13:23;13.17;;;1.60;;
17618;SDS011;8928;51.678;6.074;2023-03-14T14:16:15;7.33;;;1.30;;
17618;SDS011;8928;51.678;6.074;2023-03-14T14:19:05;9.70;;;1.20;;
17618;SDS011;8928;51.678;6.074;2023-03-14T14:21:52;9.80;;;1.40;;
17618;SDS011;8928;51.678;6.074;2023-03-14T14:24:40;9.13;;;1.27;;
17618;SDS011;8928;51.678;6.074;2023-03-14T14:27:28;6.73;;;1.23;;
17618;SDS011;8928;51.678;6.074;2023-03-14T14:30:27;6.50;;;0.93;;
17618;SDS011;8928;51.678;6.074;2023-03-14T14:33:18;8.47;;;1.13;;
17618;SDS011;8928;51.678;6.074;2023-03-14T14:36:13;6.87;;;1.10;;
17618;SDS011;8928;51.678;6.074;2023-03-14T14:39:05;9.83;;;1.07;;
17618;SDS011;8928;51.678;6.074;2023-03-14T14:41:58;6.50;;;1.10;;
17618;SDS011;8928;51.678;6.074;2023-03-14T14:44:45;5.70;;;1.07;;
17618;SDS011;8928;51.678;6.074;2023-03-14T14:47:32;10.53;;;1.67;;
17618;SDS011;8928;51.678;6.074;2023-03-14T14:50:26;9.73;;;2.50;;
17618;SDS011;8928;51.678;6.074;2023-03-14T14:53:22;7.03;;;1.47;;
17618;SDS011;8928;51.678;6.074;2023-03-14T14:56:15;10.87;;;1.03;;
17618;SDS011;8928;51.678;6.074;2023-03-14T14:59:04;7.87;;;1.10;;
17618;SDS011;8928;51.678;6.074;2023-03-14T15:01:57;7.87;;;1.47;;
17618;SDS011;8928;51.678;6.074;2023-03-14T15:04:46;7.67;;;1.00;;
17618;SDS011;8928;51.678;6.074;2023-03-14T15:07:35;5.57;;;1.43;;
17618;SDS011;8928;51.678;6.074;2023-03-14T15:10:22;5.17;;;1.00;;
17618;SDS011;8928;51.678;6.074;2023-03-14T15:13:10;9.97;;;1.70;;
17618;SDS011;8928;51.678;6.074;2023-03-14T15:15:57;9.23;;;1.00;;
17618;SDS011;8928;51.678;6.074;2023-03-14T15:18:45;5.43;;;1.30;;
17618;SDS011;8928;51.678;6.074;2023-03-14T15:21:36;8.60;;;1.30;;
17618;SDS011;8928;51.678;6.074;2023-03-14T15:24:24;8.17;;;1.20;;
17618;SDS011;8928;51.678;6.074;2023-03-14T15:27:12;7.77;;;1.20;;
17618;SDS011;8928;51.678;6.074;2023-03-14T15:30:01;10.37;;;1.27;;
17618;SDS011;8928;51.678;6.074;2023-03-14T15:32:48;5.63;;;1.10;;
17618;SDS011;8928;51.678;6.074;2023-03-14T15:35:35;6.10;;;1.10;;
17618;SDS011;8928;51.678;6.074;2023-03-14T15:38:22;8.23;;;1.20;;
17618;SDS011;8928;51.678;6.074;2023-03-14T15:41:11;8.53;;;1.10;;
17618;SDS011;8928;51.678;6.074;2023-03-14T15:43:58;10.00;;;1.20;;
17618;SDS011;8928;51.678;6.074;2023-03-14T15:46:45;9.93;;;1.30;;
17618;SDS011;8928;51.678;6.074;2023-03-14T15:49:32;11.87;;;1.20;;
17618;SDS011;8928;51.678;6.074;2023-03-14T15:52:19;11.97;;;1.20;;
17618;SDS011;8928;51.678;6.074;2023-03-14T15:55:07;10.07;;;1.37;;
17618;SDS011;8928;51.678;6.074;2023-03-14T15:57:56;16.63;;;1.40;;
17618;SDS011;8928;51.678;6.074;2023-03-14T16:00:44;14.17;;;1.20;;
17618;SDS011;8928;51.678;6.074;2023-03-14T16:03:31;8.67;;;1.30;;
17618;SDS011;8928;51.678;6.074;2023-03-14T16:06:18;11.60;;;1.20;;
17618;SDS011;8928;51.678;6.074;2023-03-14T16:09:05;11.90;;;1.10;;
17618;SDS011;8928;51.678;6.074;2023-03-14T16:11:53;5.80;;;0.97;;
17618;SDS011;8928;51.678;6.074;2023-03-14T16:14:41;7.73;;;1.00;;
17618;SDS011;8928;51.678;6.074;2023-03-14T16:17:28;9.60;;;1.20;;
17618;SDS011;8928;51.678;6.074;2023-03-14T16:20:16;9.73;;;1.40;;
17618;SDS011;8928;51.678;6.074;2023-03-14T16:23:04;9.93;;;1.77;;
17618;SDS011;8928;51.678;6.074;2023-03-14T16:25:51;12.90;;;1.47;;
17618;SDS011;8928;51.678;6.074;2023-03-14T16:28:39;10.23;;;1.37;;
17618;SDS011;8928;51.678;6.074;2023-03-14T16:31:28;17.13;;;3.50;;
17618;SDS011;8928;51.678;6.074;2023-03-14T16:34:15;12.57;;;2.47;;
17618;SDS011;8928;51.678;6.074;2023-03-14T16:37:02;11.37;;;2.30;;
17618;SDS011;8928;51.678;6.074;2023-03-14T16:39:49;9.93;;;2.20;;
17618;SDS011;8928;51.678;6.074;2023-03-14T16:42:36;10.67;;;2.17;;
17618;SDS011;8928;51.678;6.074;2023-03-14T16:45:23;14.30;;;1.47;;
17618;SDS011;8928;51.678;6.074;2023-03-14T16:48:12;10.70;;;1.43;;
17618;SDS011;8928;51.678;6.074;2023-03-14T16:50:59;7.33;;;1.00;;
17618;SDS011;8928;51.678;6.074;2023-03-14T16:53:46;6.57;;;1.20;;
17618;SDS011;8928;51.678;6.074;2023-03-14T16:56:33;11.67;;;1.60;;
17618;SDS011;8928;51.678;6.074;2023-03-14T16:59:20;9.87;;;1.27;;
17618;SDS011;8928;51.678;6.074;2023-03-14T17:02:09;10.97;;;1.30;;
17618;SDS011;8928;51.678;6.074;2023-03-14T17:04:58;6.60;;;0.80;;
17618;SDS011;8928;51.678;6.074;2023-03-14T17:07:45;7.87;;;1.10;;
17618;SDS011;8928;51.678;6.074;2023-03-14T17:10:32;7.93;;;1.37;;
17618;SDS011;8928;51.678;6.074;2023-03-14T17:13:19;7.97;;;1.00;;
17618;SDS011;8928;51.678;6.074;2023-03-14T17:16:10;10.93;;;1.10;;
17618;SDS011;8928;51.678;6.074;2023-03-14T17:18:57;9.03;;;1.00;;
17618;SDS011;8928;51.678;6.074;2023-03-14T17:21:44;9.80;;;1.47;;
17618;SDS011;8928;51.678;6.074;2023-03-14T17:24:31;7.07;;;1.13;;